Terminal Aerodrome Forecast
Issued by NWS Cheyenne, WY

Home | Current Version | Previous Version | Text Only | Print | Product List | Glossary On
Versions: 1 2 3 4 5 6 7 8 9 10 11 12 13 14 15
000
FTUS45 KCYS 272334
TAFCYS
TAF
KCYS 272334Z 2800/2824 03010KT P6SM VCSH SCT050 BKN100
     FM280200 20006KT P6SM SCT200
     FM281700 31011G19KT P6SM VCSH SCT070 BKN120=

USA.gov is the U.S. government's official web portal to all federal, state and local government web resources and services.